sensor_id;sensor_type;location;lat;lon;timestamp;P1;durP1;ratioP1;P2;durP2;ratioP2
2710;SDS011;20721;47.402;8.550;2023-03-14T00:00:23;1.16;;;1.09;;
2710;SDS011;20721;47.402;8.550;2023-03-14T00:01:24;0.99;;;0.94;;
2710;SDS011;20721;47.402;8.550;2023-03-14T00:02:22;0.77;;;0.73;;
2710;SDS011;20721;47.402;8.550;2023-03-14T00:03:22;0.57;;;0.54;;
2710;SDS011;20721;47.402;8.550;2023-03-14T00:04:22;0.83;;;0.79;;
2710;SDS011;20721;47.402;8.550;2023-03-14T00:05:22;0.86;;;0.81;;
2710;SDS011;20721;47.402;8.550;2023-03-14T00:06:23;0.56;;;0.54;;
2710;SDS011;20721;47.402;8.550;2023-03-14T00:07:22;1.01;;;0.97;;
2710;SDS011;20721;47.402;8.550;2023-03-14T00:08:22;0.52;;;0.50;;
2710;SDS011;20721;47.402;8.550;2023-03-14T00:09:23;0.55;;;0.52;;
2710;SDS011;20721;47.402;8.550;2023-03-14T00:10:24;0.82;;;0.79;;
2710;SDS011;20721;47.402;8.550;2023-03-14T00:11:24;0.46;;;0.45;;
2710;SDS011;20721;47.402;8.550;2023-03-14T00:12:24;0.79;;;0.76;;
2710;SDS011;20721;47.402;8.550;2023-03-14T00:13:22;0.82;;;0.79;;
2710;SDS011;20721;47.402;8.550;2023-03-14T00:15:23;0.63;;;0.61;;
2710;SDS011;20721;47.402;8.550;2023-03-14T00:16:22;0.51;;;0.49;;
2710;SDS011;20721;47.402;8.550;2023-03-14T00:17:23;0.48;;;0.46;;
2710;SDS011;20721;47.402;8.550;2023-03-14T00:18:22;0.65;;;0.63;;
2710;SDS011;20721;47.402;8.550;2023-03-14T00:19:22;0.56;;;0.54;;
2710;SDS011;20721;47.402;8.550;2023-03-14T00:20:22;0.40;;;0.38;;
2710;SDS011;20721;47.402;8.550;2023-03-14T00:21:22;0.34;;;0.33;;
2710;SDS011;20721;47.402;8.550;2023-03-14T00:22:22;0.24;;;0.23;;
2710;SDS011;20721;47.402;8.550;2023-03-14T00:23:22;0.35;;;0.34;;
2710;SDS011;20721;47.402;8.550;2023-03-14T00:24:22;0.52;;;0.50;;
2710;SDS011;20721;47.402;8.550;2023-03-14T00:25:22;0.34;;;0.33;;
2710;SDS011;20721;47.402;8.550;2023-03-14T00:26:24;0.34;;;0.33;;
2710;SDS011;20721;47.402;8.550;2023-03-14T00:27:22;0.25;;;0.24;;
2710;SDS011;20721;47.402;8.550;2023-03-14T00:28:23;0.18;;;0.17;;
2710;SDS011;20721;47.402;8.550;2023-03-14T00:29:22;0.11;;;0.10;;
2710;SDS011;20721;47.402;8.550;2023-03-14T00:30:23;0.36;;;0.34;;
2710;SDS011;20721;47.402;8.550;2023-03-14T00:31:24;0.15;;;0.15;;
2710;SDS011;20721;47.402;8.550;2023-03-14T00:32:22;0.21;;;0.20;;
2710;SDS011;20721;47.402;8.550;2023-03-14T00:33:23;0.34;;;0.32;;
2710;SDS011;20721;47.402;8.550;2023-03-14T00:34:22;0.17;;;0.16;;
2710;SDS011;20721;47.402;8.550;2023-03-14T00:35:22;0.15;;;0.14;;
2710;SDS011;20721;47.402;8.550;2023-03-14T00:36:24;0.06;;;0.06;;
2710;SDS011;20721;47.402;8.550;2023-03-14T00:37:22;0.12;;;0.11;;
2710;SDS011;20721;47.402;8.550;2023-03-14T00:38:22;0.29;;;0.28;;
2710;SDS011;20721;47.402;8.550;2023-03-14T00:39:22;0.16;;;0.15;;
2710;SDS011;20721;47.402;8.550;2023-03-14T00:40:22;0.20;;;0.19;;
2710;SDS011;20721;47.402;8.550;2023-03-14T00:41:24;0.29;;;0.27;;
2710;SDS011;20721;47.402;8.550;2023-03-14T00:42:23;0.05;;;0.05;;
2710;SDS011;20721;47.402;8.550;2023-03-14T00:43:23;0.07;;;0.06;;
2710;SDS011;20721;47.402;8.550;2023-03-14T00:44:22;0.10;;;0.10;;
2710;SDS011;20721;47.402;8.550;2023-03-14T00:45:22;0.08;;;0.08;;
2710;SDS011;20721;47.402;8.550;2023-03-14T00:46:23;0.16;;;0.15;;
2710;SDS011;20721;47.402;8.550;2023-03-14T00:47:22;0.21;;;0.19;;
2710;SDS011;20721;47.402;8.550;2023-03-14T00:48:23;0.28;;;0.26;;
2710;SDS011;20721;47.402;8.550;2023-03-14T00:49:22;0.06;;;0.06;;
2710;SDS011;20721;47.402;8.550;2023-03-14T00:51:25;0.21;;;0.20;;
2710;SDS011;20721;47.402;8.550;2023-03-14T00:52:22;0.18;;;0.17;;
2710;SDS011;20721;47.402;8.550;2023-03-14T00:54:22;0.05;;;0.05;;
2710;SDS011;20721;47.402;8.550;2023-03-14T00:55:22;0.08;;;0.08;;
2710;SDS011;20721;47.402;8.550;2023-03-14T00:56:23;0.17;;;0.16;;
2710;SDS011;20721;47.402;8.550;2023-03-14T00:57:22;0.13;;;0.12;;
2710;SDS011;20721;47.402;8.550;2023-03-14T00:58:23;0.21;;;0.20;;
2710;SDS011;20721;47.402;8.550;2023-03-14T00:59:22;0.23;;;0.22;;
2710;SDS011;20721;47.402;8.550;2023-03-14T01:00:23;0.30;;;0.28;;
2710;SDS011;20721;47.402;8.550;2023-03-14T01:01:24;0.16;;;0.15;;
2710;SDS011;20721;47.402;8.550;2023-03-14T01:02:22;0.08;;;0.07;;
2710;SDS011;20721;47.402;8.550;2023-03-14T01:03:23;0.14;;;0.13;;
2710;SDS011;20721;47.402;8.550;2023-03-14T01:04:22;0.14;;;0.13;;
2710;SDS011;20721;47.402;8.550;2023-03-14T01:05:22;0.24;;;0.22;;
2710;SDS011;20721;47.402;8.550;2023-03-14T01:06:25;0.08;;;0.08;;
2710;SDS011;20721;47.402;8.550;2023-03-14T01:07:22;0.14;;;0.13;;
2710;SDS011;20721;47.402;8.550;2023-03-14T01:08:23;0.26;;;0.24;;
2710;SDS011;20721;47.402;8.550;2023-03-14T01:09:22;0.13;;;0.12;;
2710;SDS011;20721;47.402;8.550;2023-03-14T01:10:22;0.13;;;0.12;;
2710;SDS011;20721;47.402;8.550;2023-03-14T01:11:26;0.17;;;0.16;;
2710;SDS011;20721;47.402;8.550;2023-03-14T01:12:22;0.30;;;0.28;;
2710;SDS011;20721;47.402;8.550;2023-03-14T01:13:22;0.24;;;0.22;;
2710;SDS011;20721;47.402;8.550;2023-03-14T01:14:23;0.13;;;0.12;;
2710;SDS011;20721;47.402;8.550;2023-03-14T01:15:22;0.19;;;0.17;;
2710;SDS011;20721;47.402;8.550;2023-03-14T01:16:27;0.27;;;0.24;;
2710;SDS011;20721;47.402;8.550;2023-03-14T01:17:22;0.20;;;0.18;;
2710;SDS011;20721;47.402;8.550;2023-03-14T01:19:22;0.15;;;0.13;;
2710;SDS011;20721;47.402;8.550;2023-03-14T01:20:24;0.14;;;0.13;;
2710;SDS011;20721;47.402;8.550;2023-03-14T01:21:23;0.40;;;0.37;;
2710;SDS011;20721;47.402;8.550;2023-03-14T01:22:22;0.17;;;0.16;;
2710;SDS011;20721;47.402;8.550;2023-03-14T01:23:22;0.11;;;0.10;;
2710;SDS011;20721;47.402;8.550;2023-03-14T01:24:23;0.12;;;0.11;;
2710;SDS011;20721;47.402;8.550;2023-03-14T01:25:26;0.21;;;0.19;;
2710;SDS011;20721;47.402;8.550;2023-03-14T01:26:25;0.34;;;0.31;;
2710;SDS011;20721;47.402;8.550;2023-03-14T01:27:23;0.15;;;0.14;;
2710;SDS011;20721;47.402;8.550;2023-03-14T01:28:22;0.26;;;0.24;;
2710;SDS011;20721;47.402;8.550;2023-03-14T01:29:22;0.38;;;0.35;;
2710;SDS011;20721;47.402;8.550;2023-03-14T01:30:23;0.23;;;0.21;;
2710;SDS011;20721;47.402;8.550;2023-03-14T01:31:23;0.04;;;0.04;;
2710;SDS011;20721;47.402;8.550;2023-03-14T01:32:22;0.19;;;0.17;;
2710;SDS011;20721;47.402;8.550;2023-03-14T01:33:24;0.12;;;0.11;;
2710;SDS011;20721;47.402;8.550;2023-03-14T01:34:22;0.17;;;0.16;;
2710;SDS011;20721;47.402;8.550;2023-03-14T01:35:22;0.11;;;0.10;;
2710;SDS011;20721;47.402;8.550;2023-03-14T01:36:23;0.14;;;0.13;;
2710;SDS011;20721;47.402;8.550;2023-03-14T01:37:22;0.23;;;0.21;;
2710;SDS011;20721;47.402;8.550;2023-03-14T01:39:23;0.20;;;0.18;;
2710;SDS011;20721;47.402;8.550;2023-03-14T01:40:26;0.12;;;0.11;;
2710;SDS011;20721;47.402;8.550;2023-03-14T01:41:25;0.33;;;0.30;;
2710;SDS011;20721;47.402;8.550;2023-03-14T01:43:24;0.26;;;0.24;;
2710;SDS011;20721;47.402;8.550;2023-03-14T01:46:40;0.12;;;0.11;;
2710;SDS011;20721;47.402;8.550;2023-03-14T01:47:23;0.17;;;0.16;;
2710;SDS011;20721;47.402;8.550;2023-03-14T01:48:22;0.23;;;0.21;;
2710;SDS011;20721;47.402;8.550;2023-03-14T01:49:33;0.07;;;0.07;;
2710;SDS011;20721;47.402;8.550;2023-03-14T01:50:23;0.10;;;0.09;;
2710;SDS011;20721;47.402;8.550;2023-03-14T01:51:27;0.21;;;0.19;;
2710;SDS011;20721;47.402;8.550;2023-03-14T01:52:29;0.24;;;0.22;;
2710;SDS011;20721;47.402;8.550;2023-03-14T01:55:26;0.17;;;0.16;;
2710;SDS011;20721;47.402;8.550;2023-03-14T01:57:35;0.10;;;0.09;;
2710;SDS011;20721;47.402;8.550;2023-03-14T01:58:24;0.17;;;0.15;;
2710;SDS011;20721;47.402;8.550;2023-03-14T01:59:23;0.15;;;0.13;;
2710;SDS011;20721;47.402;8.550;2023-03-14T02:00:26;0.09;;;0.08;;
2710;SDS011;20721;47.402;8.550;2023-03-14T02:01:25;0.05;;;0.04;;
2710;SDS011;20721;47.402;8.550;2023-03-14T02:02:24;0.29;;;0.26;;
2710;SDS011;20721;47.402;8.550;2023-03-14T02:03:26;0.12;;;0.11;;
2710;SDS011;20721;47.402;8.550;2023-03-14T02:04:25;0.08;;;0.07;;
2710;SDS011;20721;47.402;8.550;2023-03-14T02:05:25;0.07;;;0.06;;
2710;SDS011;20721;47.402;8.550;2023-03-14T02:06:26;0.08;;;0.07;;
2710;SDS011;20721;47.402;8.550;2023-03-14T02:08:25;0.05;;;0.04;;
2710;SDS011;20721;47.402;8.550;2023-03-14T02:09:23;0.09;;;0.08;;
2710;SDS011;20721;47.402;8.550;2023-03-14T02:10:25;0.06;;;0.05;;
2710;SDS011;20721;47.402;8.550;2023-03-14T02:11:23;0.15;;;0.13;;
2710;SDS011;20721;47.402;8.550;2023-03-14T02:12:24;0.02;;;0.02;;
2710;SDS011;20721;47.402;8.550;2023-03-14T02:13:24;0.14;;;0.13;;
2710;SDS011;20721;47.402;8.550;2023-03-14T02:14:29;0.09;;;0.08;;
2710;SDS011;20721;47.402;8.550;2023-03-14T02:15:23;0.13;;;0.11;;
2710;SDS011;20721;47.402;8.550;2023-03-14T02:16:23;0.12;;;0.11;;
2710;SDS011;20721;47.402;8.550;2023-03-14T02:17:24;0.22;;;0.20;;
2710;SDS011;20721;47.402;8.550;2023-03-14T02:18:24;0.12;;;0.11;;
2710;SDS011;20721;47.402;8.550;2023-03-14T02:19:27;0.03;;;0.03;;
2710;SDS011;20721;47.402;8.550;2023-03-14T02:22:25;0.15;;;0.14;;
2710;SDS011;20721;47.402;8.550;2023-03-14T02:23:36;0.20;;;0.18;;
2710;SDS011;20721;47.402;8.550;2023-03-14T02:24:27;0.07;;;0.06;;
2710;SDS011;20721;47.402;8.550;2023-03-14T02:25:26;0.20;;;0.18;;
2710;SDS011;20721;47.402;8.550;2023-03-14T02:26:37;0.07;;;0.06;;
2710;SDS011;20721;47.402;8.550;2023-03-14T02:27:24;0.14;;;0.12;;
2710;SDS011;20721;47.402;8.550;2023-03-14T02:28:23;0.11;;;0.10;;
2710;SDS011;20721;47.402;8.550;2023-03-14T02:29:23;0.09;;;0.08;;
2710;SDS011;20721;47.402;8.550;2023-03-14T02:30:26;0.08;;;0.07;;
2710;SDS011;20721;47.402;8.550;2023-03-14T02:31:23;0.16;;;0.14;;
2710;SDS011;20721;47.402;8.550;2023-03-14T02:32:24;0.22;;;0.19;;
2710;SDS011;20721;47.402;8.550;2023-03-14T02:33:24;0.07;;;0.06;;
2710;SDS011;20721;47.402;8.550;2023-03-14T02:34:23;0.08;;;0.07;;
2710;SDS011;20721;47.402;8.550;2023-03-14T02:35:26;0.21;;;0.19;;
2710;SDS011;20721;47.402;8.550;2023-03-14T02:36:24;0.10;;;0.09;;
2710;SDS011;20721;47.402;8.550;2023-03-14T02:37:26;0.12;;;0.11;;
2710;SDS011;20721;47.402;8.550;2023-03-14T02:39:28;0.16;;;0.14;;
2710;SDS011;20721;47.402;8.550;2023-03-14T02:40:23;0.17;;;0.15;;
2710;SDS011;20721;47.402;8.550;2023-03-14T02:41:23;0.21;;;0.19;;
2710;SDS011;20721;47.402;8.550;2023-03-14T02:42:23;0.18;;;0.16;;
2710;SDS011;20721;47.402;8.550;2023-03-14T02:43:23;0.07;;;0.07;;
2710;SDS011;20721;47.402;8.550;2023-03-14T02:44:23;0.07;;;0.07;;
2710;SDS011;20721;47.402;8.550;2023-03-14T02:45:28;0.05;;;0.04;;
2710;SDS011;20721;47.402;8.550;2023-03-14T02:46:26;0.16;;;0.14;;
2710;SDS011;20721;47.402;8.550;2023-03-14T02:47:26;0.19;;;0.18;;
2710;SDS011;20721;47.402;8.550;2023-03-14T02:48:27;0.16;;;0.15;;
2710;SDS011;20721;47.402;8.550;2023-03-14T02:49:24;0.29;;;0.26;;
2710;SDS011;20721;47.402;8.550;2023-03-14T02:50:26;0.09;;;0.08;;
2710;SDS011;20721;47.402;8.550;2023-03-14T02:51:24;0.19;;;0.17;;
2710;SDS011;20721;47.402;8.550;2023-03-14T02:52:23;0.26;;;0.23;;
2710;SDS011;20721;47.402;8.550;2023-03-14T02:53:28;0.18;;;0.17;;
2710;SDS011;20721;47.402;8.550;2023-03-14T02:54:23;0.26;;;0.24;;
2710;SDS011;20721;47.402;8.550;2023-03-14T02:55:23;0.18;;;0.16;;
2710;SDS011;20721;47.402;8.550;2023-03-14T02:56:23;0.07;;;0.07;;
2710;SDS011;20721;47.402;8.550;2023-03-14T02:57:23;0.24;;;0.22;;
2710;SDS011;20721;47.402;8.550;2023-03-14T02:58:23;0.08;;;0.07;;
2710;SDS011;20721;47.402;8.550;2023-03-14T02:59:23;0.14;;;0.12;;
2710;SDS011;20721;47.402;8.550;2023-03-14T03:00:23;0.21;;;0.19;;
2710;SDS011;20721;47.402;8.550;2023-03-14T03:01:23;0.20;;;0.18;;
2710;SDS011;20721;47.402;8.550;2023-03-14T03:03:23;0.10;;;0.09;;
2710;SDS011;20721;47.402;8.550;2023-03-14T03:04:23;0.18;;;0.16;;
2710;SDS011;20721;47.402;8.550;2023-03-14T03:05:23;0.14;;;0.13;;
2710;SDS011;20721;47.402;8.550;2023-03-14T03:06:23;0.13;;;0.11;;
2710;SDS011;20721;47.402;8.550;2023-03-14T03:07:23;0.21;;;0.20;;
2710;SDS011;20721;47.402;8.550;2023-03-14T03:08:23;0.28;;;0.26;;
2710;SDS011;20721;47.402;8.550;2023-03-14T03:10:23;0.17;;;0.16;;
2710;SDS011;20721;47.402;8.550;2023-03-14T03:11:23;0.22;;;0.20;;
2710;SDS011;20721;47.402;8.550;2023-03-14T03:13:23;0.61;;;0.56;;
2710;SDS011;20721;47.402;8.550;2023-03-14T03:14:23;0.20;;;0.18;;
2710;SDS011;20721;47.402;8.550;2023-03-14T03:16:25;0.19;;;0.17;;
2710;SDS011;20721;47.402;8.550;2023-03-14T03:17:23;0.16;;;0.15;;
2710;SDS011;20721;47.402;8.550;2023-03-14T03:18:23;0.26;;;0.24;;
2710;SDS011;20721;47.402;8.550;2023-03-14T03:19:23;0.18;;;0.16;;
2710;SDS011;20721;47.402;8.550;2023-03-14T03:20:23;0.18;;;0.16;;
2710;SDS011;20721;47.402;8.550;2023-03-14T03:21:23;0.24;;;0.22;;
2710;SDS011;20721;47.402;8.550;2023-03-14T03:22:23;0.26;;;0.24;;
2710;SDS011;20721;47.402;8.550;2023-03-14T03:23:23;0.29;;;0.27;;
2710;SDS011;20721;47.402;8.550;2023-03-14T03:24:23;0.18;;;0.16;;
2710;SDS011;20721;47.402;8.550;2023-03-14T03:25:23;0.22;;;0.20;;
2710;SDS011;20721;47.402;8.550;2023-03-14T03:26:23;0.35;;;0.33;;
2710;SDS011;20721;47.402;8.550;2023-03-14T03:28:23;0.19;;;0.18;;
2710;SDS011;20721;47.402;8.550;2023-03-14T03:29:23;0.25;;;0.23;;
2710;SDS011;20721;47.402;8.550;2023-03-14T03:30:23;0.17;;;0.15;;
2710;SDS011;20721;47.402;8.550;2023-03-14T03:33:23;0.14;;;0.13;;
2710;SDS011;20721;47.402;8.550;2023-03-14T03:34:23;0.22;;;0.21;;
2710;SDS011;20721;47.402;8.550;2023-03-14T03:36:23;0.23;;;0.21;;
2710;SDS011;20721;47.402;8.550;2023-03-14T03:37:23;0.27;;;0.25;;
2710;SDS011;20721;47.402;8.550;2023-03-14T03:38:23;0.37;;;0.35;;
2710;SDS011;20721;47.402;8.550;2023-03-14T03:39:23;0.52;;;0.49;;
2710;SDS011;20721;47.402;8.550;2023-03-14T03:40:23;0.18;;;0.17;;
2710;SDS011;20721;47.402;8.550;2023-03-14T03:41:23;0.11;;;0.10;;
2710;SDS011;20721;47.402;8.550;2023-03-14T03:42:23;0.22;;;0.21;;
2710;SDS011;20721;47.402;8.550;2023-03-14T03:43:23;0.10;;;0.09;;
2710;SDS011;20721;47.402;8.550;2023-03-14T03:45:23;0.18;;;0.17;;
2710;SDS011;20721;47.402;8.550;2023-03-14T03:46:23;0.17;;;0.16;;
2710;SDS011;20721;47.402;8.550;2023-03-14T03:47:23;0.14;;;0.13;;
2710;SDS011;20721;47.402;8.550;2023-03-14T03:48:23;0.15;;;0.14;;
2710;SDS011;20721;47.402;8.550;2023-03-14T03:49:23;0.29;;;0.27;;
2710;SDS011;20721;47.402;8.550;2023-03-14T03:51:24;0.14;;;0.13;;
2710;SDS011;20721;47.402;8.550;2023-03-14T03:52:23;0.26;;;0.25;;
2710;SDS011;20721;47.402;8.550;2023-03-14T03:53:26;0.27;;;0.26;;
2710;SDS011;20721;47.402;8.550;2023-03-14T03:54:23;0.08;;;0.07;;
2710;SDS011;20721;47.402;8.550;2023-03-14T03:55:23;0.20;;;0.19;;
2710;SDS011;20721;47.402;8.550;2023-03-14T03:56:23;0.22;;;0.21;;
2710;SDS011;20721;47.402;8.550;2023-03-14T03:57:23;0.21;;;0.20;;
2710;SDS011;20721;47.402;8.550;2023-03-14T03:59:23;0.25;;;0.24;;
2710;SDS011;20721;47.402;8.550;2023-03-14T04:00:23;0.13;;;0.12;;
2710;SDS011;20721;47.402;8.550;2023-03-14T04:01:23;0.14;;;0.13;;
2710;SDS011;20721;47.402;8.550;2023-03-14T04:02:23;0.08;;;0.07;;
2710;SDS011;20721;47.402;8.550;2023-03-14T04:03:23;0.26;;;0.25;;
2710;SDS011;20721;47.402;8.550;2023-03-14T04:05:23;0.20;;;0.19;;
2710;SDS011;20721;47.402;8.550;2023-03-14T04:06:23;0.09;;;0.09;;
2710;SDS011;20721;47.402;8.550;2023-03-14T04:07:24;0.19;;;0.18;;
2710;SDS011;20721;47.402;8.550;2023-03-14T04:08:23;0.41;;;0.39;;
2710;SDS011;20721;47.402;8.550;2023-03-14T04:09:23;0.09;;;0.09;;
2710;SDS011;20721;47.402;8.550;2023-03-14T04:10:23;0.12;;;0.11;;
2710;SDS011;20721;47.402;8.550;2023-03-14T04:11:23;0.08;;;0.08;;
2710;SDS011;20721;47.402;8.550;2023-03-14T04:12:23;0.15;;;0.15;;
2710;SDS011;20721;47.402;8.550;2023-03-14T04:13:23;0.04;;;0.04;;
2710;SDS011;20721;47.402;8.550;2023-03-14T04:14:23;0.19;;;0.18;;
2710;SDS011;20721;47.402;8.550;2023-03-14T04:15:23;0.06;;;0.06;;
2710;SDS011;20721;47.402;8.550;2023-03-14T04:16:25;0.24;;;0.23;;
2710;SDS011;20721;47.402;8.550;2023-03-14T04:17:23;0.16;;;0.16;;
2710;SDS011;20721;47.402;8.550;2023-03-14T04:18:23;0.34;;;0.32;;
2710;SDS011;20721;47.402;8.550;2023-03-14T04:19:23;0.25;;;0.24;;
2710;SDS011;20721;47.402;8.550;2023-03-14T04:20:23;0.21;;;0.20;;
2710;SDS011;20721;47.402;8.550;2023-03-14T04:21:23;0.08;;;0.08;;
2710;SDS011;20721;47.402;8.550;2023-03-14T04:22:23;0.32;;;0.31;;
2710;SDS011;20721;47.402;8.550;2023-03-14T04:24:23;0.34;;;0.32;;
2710;SDS011;20721;47.402;8.550;2023-03-14T04:25:23;0.17;;;0.16;;
2710;SDS011;20721;47.402;8.550;2023-03-14T04:27:24;1.41;;;1.35;;
2710;SDS011;20721;47.402;8.550;2023-03-14T04:28:23;2.36;;;2.28;;
2710;SDS011;20721;47.402;8.550;2023-03-14T04:29:24;3.57;;;3.49;;
2710;SDS011;20721;47.402;8.550;2023-03-14T04:30:23;0.46;;;0.45;;
2710;SDS011;20721;47.402;8.550;2023-03-14T04:31:26;0.26;;;0.25;;
2710;SDS011;20721;47.402;8.550;2023-03-14T04:33:27;0.17;;;0.16;;
2710;SDS011;20721;47.402;8.550;2023-03-14T04:34:23;0.17;;;0.16;;
2710;SDS011;20721;47.402;8.550;2023-03-14T04:35:23;0.15;;;0.15;;
2710;SDS011;20721;47.402;8.550;2023-03-14T04:36:24;0.21;;;0.20;;
2710;SDS011;20721;47.402;8.550;2023-03-14T04:37:23;0.22;;;0.22;;
2710;SDS011;20721;47.402;8.550;2023-03-14T04:38:23;0.13;;;0.13;;
2710;SDS011;20721;47.402;8.550;2023-03-14T04:39:23;0.19;;;0.19;;
2710;SDS011;20721;47.402;8.550;2023-03-14T04:40:23;0.27;;;0.27;;
2710;SDS011;20721;47.402;8.550;2023-03-14T04:41:23;0.15;;;0.15;;
2710;SDS011;20721;47.402;8.550;2023-03-14T04:42:23;0.05;;;0.05;;
2710;SDS011;20721;47.402;8.550;2023-03-14T04:43:23;0.10;;;0.10;;
2710;SDS011;20721;47.402;8.550;2023-03-14T04:44:23;0.11;;;0.10;;
2710;SDS011;20721;47.402;8.550;2023-03-14T04:45:23;0.27;;;0.26;;
2710;SDS011;20721;47.402;8.550;2023-03-14T04:46:23;0.11;;;0.11;;
2710;SDS011;20721;47.402;8.550;2023-03-14T04:47:23;0.19;;;0.19;;
2710;SDS011;20721;47.402;8.550;2023-03-14T04:48:23;0.20;;;0.20;;
2710;SDS011;20721;47.402;8.550;2023-03-14T04:49:23;0.23;;;0.22;;
2710;SDS011;20721;47.402;8.550;2023-03-14T04:50:23;0.12;;;0.12;;
2710;SDS011;20721;47.402;8.550;2023-03-14T04:51:23;0.15;;;0.15;;
2710;SDS011;20721;47.402;8.550;2023-03-14T04:52:23;0.20;;;0.20;;
2710;SDS011;20721;47.402;8.550;2023-03-14T04:54:23;0.21;;;0.20;;
2710;SDS011;20721;47.402;8.550;2023-03-14T04:55:23;0.27;;;0.26;;
2710;SDS011;20721;47.402;8.550;2023-03-14T04:57:23;0.33;;;0.32;;
2710;SDS011;20721;47.402;8.550;2023-03-14T04:58:23;0.29;;;0.29;;
2710;SDS011;20721;47.402;8.550;2023-03-14T04:59:23;0.29;;;0.28;;
2710;SDS011;20721;47.402;8.550;2023-03-14T05:00:23;0.42;;;0.41;;
2710;SDS011;20721;47.402;8.550;2023-03-14T05:03:24;0.34;;;0.32;;
2710;SDS011;20721;47.402;8.550;2023-03-14T05:04:23;0.40;;;0.38;;
2710;SDS011;20721;47.402;8.550;2023-03-14T05:05:23;0.33;;;0.31;;
2710;SDS011;20721;47.402;8.550;2023-03-14T05:06:23;0.34;;;0.32;;
2710;SDS011;20721;47.402;8.550;2023-03-14T05:07:25;0.44;;;0.41;;
2710;SDS011;20721;47.402;8.550;2023-03-14T05:08:23;0.19;;;0.18;;
2710;SDS011;20721;47.402;8.550;2023-03-14T05:09:23;0.57;;;0.54;;
2710;SDS011;20721;47.402;8.550;2023-03-14T05:10:23;0.32;;;0.30;;
2710;SDS011;20721;47.402;8.550;2023-03-14T05:11:23;0.24;;;0.23;;
2710;SDS011;20721;47.402;8.550;2023-03-14T05:12:23;0.17;;;0.16;;
2710;SDS011;20721;47.402;8.550;2023-03-14T05:13:23;0.39;;;0.36;;
2710;SDS011;20721;47.402;8.550;2023-03-14T05:14:23;0.72;;;0.67;;
2710;SDS011;20721;47.402;8.550;2023-03-14T05:15:23;0.35;;;0.33;;
2710;SDS011;20721;47.402;8.550;2023-03-14T05:16:23;0.37;;;0.34;;
2710;SDS011;20721;47.402;8.550;2023-03-14T05:17:24;0.24;;;0.22;;
2710;SDS011;20721;47.402;8.550;2023-03-14T05:18:23;0.28;;;0.26;;
2710;SDS011;20721;47.402;8.550;2023-03-14T05:19:23;0.39;;;0.37;;
2710;SDS011;20721;47.402;8.550;2023-03-14T05:21:23;0.47;;;0.44;;
2710;SDS011;20721;47.402;8.550;2023-03-14T05:22:23;0.23;;;0.22;;
2710;SDS011;20721;47.402;8.550;2023-03-14T05:23:23;0.29;;;0.27;;
2710;SDS011;20721;47.402;8.550;2023-03-14T05:24:23;0.28;;;0.26;;
2710;SDS011;20721;47.402;8.550;2023-03-14T05:26:23;0.39;;;0.37;;
2710;SDS011;20721;47.402;8.550;2023-03-14T05:27:23;0.30;;;0.28;;
2710;SDS011;20721;47.402;8.550;2023-03-14T05:28:23;0.16;;;0.15;;
2710;SDS011;20721;47.402;8.550;2023-03-14T05:29:23;0.14;;;0.13;;
2710;SDS011;20721;47.402;8.550;2023-03-14T05:30:23;0.33;;;0.31;;
2710;SDS011;20721;47.402;8.550;2023-03-14T05:31:23;0.30;;;0.28;;
2710;SDS011;20721;47.402;8.550;2023-03-14T05:34:23;0.32;;;0.29;;
2710;SDS011;20721;47.402;8.550;2023-03-14T05:35:23;0.30;;;0.28;;
2710;SDS011;20721;47.402;8.550;2023-03-14T05:36:23;0.20;;;0.19;;
2710;SDS011;20721;47.402;8.550;2023-03-14T05:37:23;0.35;;;0.32;;
2710;SDS011;20721;47.402;8.550;2023-03-14T05:38:23;0.36;;;0.34;;
2710;SDS011;20721;47.402;8.550;2023-03-14T05:39:23;0.26;;;0.25;;
2710;SDS011;20721;47.402;8.550;2023-03-14T05:40:23;0.24;;;0.22;;
2710;SDS011;20721;47.402;8.550;2023-03-14T05:41:23;0.34;;;0.32;;
2710;SDS011;20721;47.402;8.550;2023-03-14T05:42:23;0.30;;;0.29;;
2710;SDS011;20721;47.402;8.550;2023-03-14T05:43:24;0.35;;;0.33;;
2710;SDS011;20721;47.402;8.550;2023-03-14T05:44:23;0.28;;;0.27;;
2710;SDS011;20721;47.402;8.550;2023-03-14T05:45:23;0.25;;;0.24;;
2710;SDS011;20721;47.402;8.550;2023-03-14T05:46:23;0.40;;;0.38;;
2710;SDS011;20721;47.402;8.550;2023-03-14T05:47:23;0.21;;;0.20;;
2710;SDS011;20721;47.402;8.550;2023-03-14T05:49:23;0.28;;;0.26;;
2710;SDS011;20721;47.402;8.550;2023-03-14T05:50:23;0.33;;;0.31;;
2710;SDS011;20721;47.402;8.550;2023-03-14T05:51:23;0.37;;;0.35;;
2710;SDS011;20721;47.402;8.550;2023-03-14T05:53:24;0.37;;;0.35;;
2710;SDS011;20721;47.402;8.550;2023-03-14T05:54:23;0.42;;;0.39;;
2710;SDS011;20721;47.402;8.550;2023-03-14T05:55:23;0.24;;;0.23;;
2710;SDS011;20721;47.402;8.550;2023-03-14T05:56:23;0.31;;;0.29;;
2710;SDS011;20721;47.402;8.550;2023-03-14T05:57:23;0.25;;;0.23;;
2710;SDS011;20721;47.402;8.550;2023-03-14T05:59:24;0.46;;;0.43;;
2710;SDS011;20721;47.402;8.550;2023-03-14T06:01:23;0.19;;;0.18;;
2710;SDS011;20721;47.402;8.550;2023-03-14T06:02:23;0.21;;;0.20;;
2710;SDS011;20721;47.402;8.550;2023-03-14T06:03:23;0.41;;;0.39;;
2710;SDS011;20721;47.402;8.550;2023-03-14T06:04:24;0.33;;;0.31;;
2710;SDS011;20721;47.402;8.550;2023-03-14T06:05:23;0.60;;;0.57;;
2710;SDS011;20721;47.402;8.550;2023-03-14T06:06:23;0.33;;;0.31;;
2710;SDS011;20721;47.402;8.550;2023-03-14T06:07:23;0.44;;;0.42;;
2710;SDS011;20721;47.402;8.550;2023-03-14T06:08:23;0.40;;;0.38;;
2710;SDS011;20721;47.402;8.550;2023-03-14T06:09:23;0.27;;;0.26;;
2710;SDS011;20721;47.402;8.550;2023-03-14T06:10:23;0.30;;;0.28;;
2710;SDS011;20721;47.402;8.550;2023-03-14T06:11:23;0.44;;;0.42;;
2710;SDS011;20721;47.402;8.550;2023-03-14T06:12:23;0.36;;;0.35;;
2710;SDS011;20721;47.402;8.550;2023-03-14T06:13:25;0.54;;;0.52;;
2710;SDS011;20721;47.402;8.550;2023-03-14T06:14:23;1.49;;;1.43;;
2710;SDS011;20721;47.402;8.550;2023-03-14T06:15:23;0.77;;;0.74;;
2710;SDS011;20721;47.402;8.550;2023-03-14T06:16:24;1.20;;;1.15;;
2710;SDS011;20721;47.402;8.550;2023-03-14T06:17:23;0.81;;;0.78;;
2710;SDS011;20721;47.402;8.550;2023-03-14T06:18:24;0.41;;;0.40;;
2710;SDS011;20721;47.402;8.550;2023-03-14T06:19:23;0.81;;;0.78;;
2710;SDS011;20721;47.402;8.550;2023-03-14T06:20:24;0.94;;;0.91;;
2710;SDS011;20721;47.402;8.550;2023-03-14T06:21:23;1.02;;;0.99;;
2710;SDS011;20721;47.402;8.550;2023-03-14T06:22:23;1.23;;;1.19;;
2710;SDS011;20721;47.402;8.550;2023-03-14T06:23:23;0.86;;;0.83;;
2710;SDS011;20721;47.402;8.550;2023-03-14T06:24:23;0.46;;;0.45;;
2710;SDS011;20721;47.402;8.550;2023-03-14T06:25:23;0.93;;;0.91;;
2710;SDS011;20721;47.402;8.550;2023-03-14T06:28:23;1.29;;;1.27;;
2710;SDS011;20721;47.402;8.550;2023-03-14T06:29:23;1.06;;;1.04;;
2710;SDS011;20721;47.402;8.550;2023-03-14T06:30:23;3.38;;;3.34;;
2710;SDS011;20721;47.402;8.550;2023-03-14T06:31:23;1.69;;;1.67;;
2710;SDS011;20721;47.402;8.550;2023-03-14T06:32:23;2.14;;;2.12;;
2710;SDS011;20721;47.402;8.550;2023-03-14T06:33:23;1.15;;;1.14;;
2710;SDS011;20721;47.402;8.550;2023-03-14T06:34:23;1.03;;;1.01;;
2710;SDS011;20721;47.402;8.550;2023-03-14T06:35:23;1.03;;;1.02;;
2710;SDS011;20721;47.402;8.550;2023-03-14T06:36:23;0.84;;;0.83;;
2710;SDS011;20721;47.402;8.550;2023-03-14T06:37:23;1.95;;;1.93;;
2710;SDS011;20721;47.402;8.550;2023-03-14T06:38:23;2.80;;;2.78;;
2710;SDS011;20721;47.402;8.550;2023-03-14T06:39:23;1.39;;;1.38;;
2710;SDS011;20721;47.402;8.550;2023-03-14T06:40:27;1.49;;;1.49;;
2710;SDS011;20721;47.402;8.550;2023-03-14T06:41:23;2.91;;;2.89;;
2710;SDS011;20721;47.402;8.550;2023-03-14T06:43:23;1.12;;;1.11;;
2710;SDS011;20721;47.402;8.550;2023-03-14T06:44:23;1.64;;;1.62;;
2710;SDS011;20721;47.402;8.550;2023-03-14T06:45:24;1.02;;;1.01;;
2710;SDS011;20721;47.402;8.550;2023-03-14T06:46:25;0.77;;;0.76;;
2710;SDS011;20721;47.402;8.550;2023-03-14T06:47:24;0.68;;;0.67;;
2710;SDS011;20721;47.402;8.550;2023-03-14T06:48:23;0.66;;;0.65;;
2710;SDS011;20721;47.402;8.550;2023-03-14T06:49:23;1.01;;;0.99;;
2710;SDS011;20721;47.402;8.550;2023-03-14T06:50:24;0.83;;;0.81;;
2710;SDS011;20721;47.402;8.550;2023-03-14T06:51:23;0.99;;;0.96;;